^^
Datos históricos de la estación: Murcia-Puente Tocinos
Diario Informe para Octubre 19, 2021 Unidades:  Ingés    Métrico   Ambas
Diario Semanal Mensual Anual
  Máxima: Mínima: Promedio:
Temperatura: 75.9 °F 62.1 °F 68.2 °F
Punto de rocio: 63.3 °F 56.3 °F 59.7 °F
Humedad: 90.9% 52% 76%
Velocidad viento: 10.2mph 0mph 3.7mph
Racha viento: 19mph - -
Viento- - ESE
Presión: 30.3 in 30.2 in -
Precipitación: 0 in    
 
 
Tabla de datos para Octubre 19, 2021
Hora Temperatura Punto de rocio Presión Viento Velocidad viento Racha viento Humedad Intensidad lluvia(por hora) Nubes
00:04 66.6 °F 61.9 °F 30.3 in NNO 1.8 mph 2.3 mph 85% 0 in
00:09 66.6 °F 61.9 °F 30.3 in NNO 1 mph 2.9 mph 85% 0 in
00:14 66.6 °F 61.9 °F 30.3 in Calm   4.6 mph 85% 0 in
00:19 66.6 °F 61.9 °F 30.3 in NO 0.8 mph 3.5 mph 85% 0 in
00:24 66.4 °F 61.7 °F 30.3 in NO 2 mph 3.6 mph 85% 0 in
00:29 66.4 °F 61.9 °F 30.3 in NNE 2 mph 4.6 mph 85.5% 0 in
00:34 66.4 °F 62.1 °F 30.3 in ENE 2 mph 3.5 mph 86% 0 in
00:39 66 °F 61.7 °F 30.3 in Este 2.2 mph 3.6 mph 85.5% 0 in
00:44 66 °F 61.7 °F 30.3 in Este 2.4 mph 3.5 mph 86% 0 in
00:49 65.8 °F 61.5 °F 30.3 in Este 2.4 mph 4.6 mph 85.9% 0 in
00:54 65.7 °F 61.2 °F 30.3 in Este 2.4 mph 2.9 mph 85.3% 0 in
00:59 65.5 °F 61 °F 30.3 in Este 1.9 mph 2.9 mph 85.2% 0 in
01:04 65.3 °F 61 °F 30.3 in Este 1.4 mph   86% 0 in
01:09 65.3 °F 61 °F 30.3 in Este 0.8 mph   86% 0 in
01:14 65.1 °F 60.8 °F 30.3 in Calm     86% 0 in
01:19 65.1 °F 60.8 °F 30.3 in Calm   2.9 mph 86% 0 in
01:24 65.1 °F 60.8 °F 30.3 in Calm   2.4 mph 86% 0 in
01:29 64.9 °F 60.6 °F 30.3 in Este 0.7 mph 3.5 mph 86% 0 in
01:34 64.9 °F 60.6 °F 30.3 in ENE 1.8 mph 3.6 mph 86.1% 0 in
01:39 64.8 °F 60.8 °F 30.3 in North 1.9 mph 3.5 mph 87% 0 in
01:44 64.6 °F 60.6 °F 30.3 in North 2 mph 2.3 mph 87% 0 in
01:49 64.6 °F 60.6 °F 30.3 in North 1.2 mph 2.9 mph 87% 0 in
01:54 64.6 °F 60.6 °F 30.3 in Calm   4.6 mph 87% 0 in
01:59 64.6 °F 60.6 °F 30.3 in ESE 1.1 mph 4.7 mph 87% 0 in
02:04 64.4 °F 60.4 °F 30.3 in ESE 2.4 mph 4.6 mph 87% 0 in
02:09 64.4 °F 60.3 °F 30.3 in ESE 2.6 mph 4.6 mph 86.7% 0 in
02:14 64.2 °F 59.9 °F 30.3 in SE 2.9 mph 4.6 mph 86% 0 in
02:19 64.2 °F 60.3 °F 30.3 in SE 2.5 mph 2.9 mph 86.8% 0 in
02:24 64 °F 60.1 °F 30.3 in SE 2 mph   87% 0 in
02:29 64 °F 60.1 °F 30.3 in SE 1.2 mph 2.9 mph 87% 0 in
02:34 64.2 °F 60.3 °F 30.3 in Calm   2.9 mph 87% 0 in
02:39 64.2 °F 60.3 °F 30.3 in SE 0.6 mph 3.5 mph 87% 0 in
02:44 64.2 °F 60.3 °F 30.3 in SE 1.4 mph 3.5 mph 87% 0 in
02:49 64.2 °F 60.3 °F 30.3 in SE 1.4 mph   87% 0 in
02:54 64.2 °F 60.3 °F 30.3 in SE 1.4 mph 2.4 mph 87% 0 in
02:59 64.2 °F 60.3 °F 30.3 in SE 0.8 mph 2.9 mph 87% 0 in
03:04 64.2 °F 60.3 °F 30.3 in Calm   1.4 mph 87% 0 in
03:09 64.2 °F 60.3 °F 30.3 in Calm   3.6 mph 87% 0 in
03:14 64.2 °F 60.3 °F 30.3 in Calm   3.5 mph 87% 0 in
03:19 64.2 °F 60.3 °F 30.3 in SE 0.8 mph 1.2 mph 87% 0 in
03:24 64.2 °F 60.3 °F 30.3 in SE 1.8 mph 3.1 mph 87% 0 in
03:29 64.4 °F 60.4 °F 30.3 in SE 1.6 mph 3.6 mph 87% 0 in
03:34 64.4 °F 60.4 °F 30.3 in SE 1.4 mph 2.4 mph 87% 0 in
03:39 64.2 °F 60.4 °F 30.3 in SE 1.4 mph 1.4 mph 87% 0 in
03:44 64.2 °F 60.3 °F 30.3 in SE 1.4 mph 2.3 mph 87% 0 in
03:49 64.2 °F 60.3 °F 30.3 in SE 0.8 mph 2.9 mph 87% 0 in
03:54 64.2 °F 60.3 °F 30.3 in Calm   2.3 mph 87% 0 in
03:59 64.2 °F 60.3 °F 30.3 in SE 0.6 mph 3.6 mph 87% 0 in
04:04 64.2 °F 60.3 °F 30.3 in SE 1.4 mph 3.6 mph 87% 0 in
04:09 64.2 °F 60.3 °F 30.3 in SE 1.8 mph 4.7 mph 87% 0 in
04:14 64 °F 60.1 °F 30.3 in SSE 2.4 mph 4.6 mph 87% 0 in
04:19 64 °F 60.1 °F 30.3 in Sur 2.7 mph 4.6 mph 87% 0 in
04:24 64 °F 60.3 °F 30.3 in SSO 3.1 mph 4.6 mph 87.8% 0 in
04:29 64 °F 60.4 °F 30.3 in SSO 2.8 mph 5.8 mph 88% 0 in
04:34 64 °F 60.4 °F 30.3 in SSO 2.4 mph 5.8 mph 88% 0 in
04:39 64 °F 60.4 °F 30.3 in SSO 2.6 mph 3.5 mph 88% 0 in
04:44 64 °F 60.4 °F 30.3 in SO 2.9 mph 3.6 mph 88% 0 in
04:49 64 °F 60.4 °F 30.3 in SO 2.5 mph 3.5 mph 88% 0 in
04:54 63.9 °F 60.3 °F 30.3 in SO 2 mph 2.4 mph 88% 0 in
04:59 63.9 °F 60.3 °F 30.3 in SO 1.7 mph 3.5 mph 88% 0 in
05:04 63.9 °F 60.3 °F 30.3 in SO 1.4 mph 2.9 mph 88% 0 in
05:09 63.9 °F 60.3 °F 30.3 in SSO 1.6 mph 3.5 mph 88% 0 in
05:14 63.9 °F 60.3 °F 30.3 in SSE 2 mph 4.7 mph 88% 0 in
05:19 63.9 °F 60.1 °F 30.3 in SSE 2.4 mph 4.7 mph 88% 0 in
05:24 63.7 °F 60.1 °F 30.3 in Sur 2.9 mph 4.7 mph 88% 0 in
05:29 63.7 °F 60.1 °F 30.3 in SE 3 mph 5.2 mph 88% 0 in
05:34 63.7 °F 60.1 °F 30.3 in SE 3.1 mph 4.7 mph 88% 0 in
05:39 63.3 °F 59.7 °F 30.3 in SE 3 mph 4.6 mph 88% 0 in
05:44 63.1 °F 59.5 °F 30.3 in SE 2.9 mph 5.8 mph 88% 0 in
05:49 63 °F 59.4 °F 30.3 in SE 2.9 mph 4 mph 88% 0 in
05:54 63 °F 59.2 °F 30.3 in ESE 2.9 mph 3.6 mph 88% 0 in
05:59 62.8 °F 59.4 °F 30.3 in SSE 2.7 mph 3.6 mph 88.7% 0 in
06:04 62.8 °F 59.5 °F 30.3 in Sur 2.4 mph 3.6 mph 89% 0 in
06:09 63 °F 59.5 °F 30.3 in Sur 2.2 mph 3.6 mph 89% 0 in
06:14 63 °F 59.7 °F 30.3 in Sur 2 mph 3.5 mph 89% 0 in
06:19 63 °F 59.7 °F 30.3 in Sur 1.9 mph 2.4 mph 89% 0 in
06:24 63 °F 59.7 °F 30.3 in Sur 1.8 mph 2.3 mph 89% 0 in
06:29 63 °F 59.7 °F 30.3 in Sur 1.1 mph 1.4 mph 89% 0 in
06:34 63 °F 59.5 °F 30.3 in Calm   2.4 mph 89% 0 in
06:39 62.8 °F 59.4 °F 30.3 in Sur 0.6 mph 3.5 mph 89% 0 in
06:44 62.4 °F 59.2 °F 30.3 in Sur 1.4 mph 3.5 mph 89% 0 in
06:49 62.2 °F 59 °F 30.3 in Sur 1.6 mph 2.4 mph 89% 0 in
06:54 62.2 °F 59 °F 30.3 in Sur 1.8 mph 2.4 mph 89.1% 0 in
06:59 62.1 °F 59.2 °F 30.3 in Sur 1.6 mph 2.3 mph 90% 0 in
07:04 62.1 °F 59.2 °F 30.3 in Sur 1.4 mph 2.4 mph 90% 0 in
07:09 62.1 °F 59.2 °F 30.3 in Sur 0.8 mph 2.3 mph 90% 0 in
07:14 62.1 °F 59.2 °F 30.3 in Calm     90% 0 in
07:19 62.1 °F 59.2 °F 30.3 in Calm   2.3 mph 90% 0 in
07:24 62.1 °F 59.4 °F 30.3 in Calm     90.9% 0 in
07:29 62.2 °F 59.4 °F 30.3 in Calm   2.9 mph 90.1% 0 in
07:34 62.1 °F 59.2 °F 30.3 in Calm   2.9 mph 90% 0 in
07:39 62.1 °F 59.2 °F 30.3 in Sur 0.6 mph 3.6 mph 90% 0 in
07:44 62.1 °F 59.2 °F 30.3 in Sur 1.4 mph 3.5 mph 90% 0 in
07:49 62.1 °F 59 °F 30.3 in Sur 1.4 mph 2.3 mph 90% 0 in
07:54 62.1 °F 59.2 °F 30.3 in Sur 1.4 mph 3.6 mph 90% 0 in
07:59 62.1 °F 59.2 °F 30.3 in Sur 1.7 mph 3.6 mph 90.4% 0 in
08:04 62.2 °F 59.4 °F 30.3 in Sur 2 mph 2.9 mph 90.2% 0 in
08:09 62.2 °F 59.4 °F 30.3 in Sur 1.2 mph 2.4 mph 90.4% 0 in
08:14 62.2 °F 59.4 °F 30.3 in Calm   2.4 mph 90% 0 in
08:19 62.2 °F 59.4 °F 30.3 in Calm   1.8 mph 90% 0 in
08:24 62.2 °F 59.2 °F 30.3 in Calm   2.3 mph 90% 0 in
08:29 62.1 °F 59.2 °F 30.3 in SE 0.6 mph 4.6 mph 90% 0 in
08:34 62.1 °F 59.2 °F 30.3 in ESE 1.4 mph 4.6 mph 90% 0 in
08:39 62.2 °F 59.2 °F 30.3 in ESE 1.8 mph 3.6 mph 90% 0 in
08:44 62.1 °F 59.2 °F 30.3 in ESE 2.4 mph 3.6 mph 90% 0 in
08:49 62.2 °F 59 °F 30.3 in SE 2.2 mph 4.6 mph 89.5% 0 in
08:54 62.2 °F 59 °F 30.3 in SSE 2 mph 4.7 mph 89.3% 0 in
08:59 62.2 °F 59 °F 30.3 in Sur 2.4 mph 4 mph 89.2% 0 in
09:04 62.4 °F 59.4 °F 30.3 in Sur 2.9 mph 4.6 mph 90% 0 in
09:09 62.8 °F 59.7 °F 30.3 in Sur 2.5 mph 3.6 mph 90% 0 in
09:14 63 °F 59.9 °F 30.3 in SSO 2 mph 4.6 mph 89.5% 0 in
09:19 63.1 °F 59.9 °F 30.3 in SO 1.9 mph 2.3 mph 89% 0 in
09:24 63.3 °F 59.9 °F 30.3 in SO 1.8 mph 2.9 mph 88.7% 0 in
09:29 63.5 °F 59.9 °F 30.3 in SO 1.6 mph 2.9 mph 88% 0 in
09:34 63.7 °F 60.1 °F 30.3 in SO 1.4 mph 3.5 mph 88% 0 in
09:39 63.9 °F 60.3 °F 30.3 in SO 1.4 mph 3.5 mph 88% 0 in
09:44 64.2 °F 60.6 °F 30.3 in Sur 1.4 mph 4.7 mph 88% 0 in
09:49 64.8 °F 60.8 °F 30.3 in SSE 1.6 mph 5.2 mph 87.2% 0 in
09:54 64.9 °F 60.6 °F 30.3 in Sur 2 mph 5.8 mph 85.9% 0 in
09:59 65.1 °F 60.6 °F 30.3 in Sur 2.7 mph 5.9 mph 85% 0 in
10:04 65.5 °F 60.8 °F 30.3 in Sur 3.6 mph 4.7 mph 85% 0 in
10:09 65.7 °F 61 °F 30.3 in Sur 3.8 mph 6.2 mph 84.9% 0 in
10:14 65.8 °F 61 °F 30.3 in SSE 4 mph 6.4 mph 84.4% 0 in
10:19 66.2 °F 61.2 °F 30.3 in SSE 4 mph 6.9 mph 84% 0 in
10:24 66.4 °F 61.2 °F 30.3 in Sur 4 mph 5.2 mph 83.2% 0 in
10:29 66.6 °F 61.3 °F 30.3 in Sur 3.6 mph 4.7 mph 83% 0 in
10:34 66.9 °F 61.5 °F 30.3 in OSO 3.1 mph 5.4 mph 82.9% 0 in
10:39 67.3 °F 61.5 °F 30.3 in OSO 3 mph 5.9 mph 82% 0 in
10:44 67.5 °F 61.7 °F 30.3 in OSO 2.9 mph 4.6 mph 82% 0 in
10:49 67.6 °F 61.7 °F 30.3 in SSO 2.5 mph 4.6 mph 81.4% 0 in
10:54 68 °F 62.2 °F 30.3 in Oeste 2 mph 3.5 mph 81.5% 0 in
10:59 68.5 °F 62.2 °F 30.3 in OSO 1.9 mph 4.6 mph 80.1% 0 in
11:04 68.9 °F 62.2 °F 30.3 in Oeste 1.8 mph 2.9 mph 79.3% 0 in
11:09 69.3 °F 62.2 °F 30.3 in OSO 1.9 mph 4.6 mph 78.6% 0 in
11:14 69.6 °F 62.8 °F 30.3 in NO 2 mph 3.6 mph 78.9% 0 in
11:19 70 °F 62.6 °F 30.3 in OSO 2 mph 4.6 mph 77.3% 0 in
11:24 70.2 °F 62.6 °F 30.3 in OSO 2 mph 2.9 mph 77% 0 in
11:29 70.3 °F 62.8 °F 30.3 in Oeste 1.7 mph 5.8 mph 77% 0 in
11:34 70.7 °F 62.8 °F 30.3 in North 1.4 mph 7.4 mph 76.1% 0 in
11:39 71.1 °F 63 °F 30.3 in NNE 2.1 mph 8.1 mph 75.9% 0 in
11:44 71.1 °F 62.8 °F 30.3 in NNE 3.1 mph 6.9 mph 75.3% 0 in
11:49 71.1 °F 62.8 °F 30.3 in North 3.5 mph 6.9 mph 75% 0 in
11:54 71.2 °F 62.8 °F 30.3 in NNE 4 mph 6.9 mph 75% 0 in
11:59 71.6 °F 63.3 °F 30.3 in NNE 3.3 mph 4.6 mph 75% 0 in
12:04 72.1 °F 63.1 °F 30.3 in NE 2.4 mph 6.9 mph 73.4% 0 in
12:09 72.1 °F 62.8 °F 30.3 in ENE 2.9 mph 6.9 mph 72.2% 0 in
12:14 72.3 °F 63 °F 30.3 in NE 3.6 mph 9.2 mph 72.5% 0 in
12:19 72.1 °F 62.4 °F 30.3 in NE 3.9 mph 6.9 mph 71.5% 0 in
12:24 72 °F 62.4 °F 30.3 in NNE 4.3 mph 8.7 mph 71.8% 0 in
12:29 71.6 °F 61.9 °F 30.3 in NE 4.8 mph 11.5 mph 71.5% 0 in
12:34 71.6 °F 61.7 °F 30.3 in NE 5.4 mph 11.5 mph 71% 0 in
12:39 72 °F 61.9 °F 30.3 in ENE 5.6 mph 8.1 mph 70.7% 0 in
12:44 72.3 °F 61.2 °F 30.3 in NE 5.9 mph 9.2 mph 67.8% 0 in
12:49 72.7 °F 61.2 °F 30.3 in NE 5.7 mph 9.2 mph 67% 0 in
12:54 73 °F 61.2 °F 30.3 in NE 5.4 mph 10.7 mph 66.6% 0 in
12:59 73 °F 61.2 °F 30.3 in NE 5.3 mph 7.6 mph 66.3% 0 in
13:04 73.6 °F 61 °F 30.3 in ENE 5.2 mph 12.7 mph 64.8% 0 in
13:09 73.8 °F 60.6 °F 30.3 in ENE 5.5 mph 10.4 mph 63.7% 0 in
13:14 73.8 °F 60.4 °F 30.3 in NNE 5.9 mph 13.8 mph 63.1% 0 in
13:19 73.9 °F 60.4 °F 30.3 in NE 6.3 mph 12.7 mph 62.8% 0 in
13:24 74.1 °F 60.1 °F 30.3 in ENE 6.9 mph 12.7 mph 61.6% 0 in
13:29 74.7 °F 60.3 °F 30.3 in Este 6.6 mph 11.5 mph 61% 0 in
13:34 75 °F 60.6 °F 30.3 in ENE 6.2 mph 10.4 mph 61.1% 0 in
13:39 74.8 °F 60.4 °F 30.3 in NE 6.3 mph 14 mph 61% 0 in
13:44 74.5 °F 58.8 °F 30.3 in NE 6.4 mph 17.3 mph 58.3% 0 in
13:49 74.7 °F 59 °F 30.3 in NE 7.4 mph 14 mph 58.2% 0 in
13:54 74.7 °F 59 °F 30.3 in NE 8.7 mph 15 mph 58.1% 0 in
13:59 74.8 °F 59 °F 30.3 in NE 8.4 mph 13 mph 57.6% 0 in
14:04 75.2 °F 58.5 °F 30.3 in NNE 8.1 mph 13 mph 56.1% 0 in
14:09 75.4 °F 59.5 °F 30.3 in NNE 7.9 mph 14.7 mph 57.8% 0 in
14:14 75.2 °F 59.4 °F 30.3 in NNE 7.6 mph 16.1 mph 57.9% 0 in
14:19 75 °F 59 °F 30.3 in NE 8.6 mph 16.1 mph 57.3% 0 in
14:24 75.2 °F 58.6 °F 30.3 in NNE 10 mph 16.1 mph 56.2% 0 in
14:29 75.2 °F 58.6 °F 30.3 in NNE 9.9 mph 17.3 mph 56.3% 0 in
14:34 75 °F 58.8 °F 30.3 in NE 9.7 mph 17.3 mph 56.9% 0 in
14:39 75.6 °F 58.8 °F 30.3 in NE 9.8 mph 16.1 mph 56.3% 0 in
14:44 75.6 °F 58.1 °F 30.3 in NE 10 mph 15 mph 54.6% 0 in
14:49 75.7 °F 57.7 °F 30.3 in NE 9.7 mph 12.7 mph 54% 0 in
14:54 75.7 °F 57.9 °F 30.3 in NE 9.2 mph 18.1 mph 53.8% 0 in
14:59 75.4 °F 58.8 °F 30.3 in NE 9.4 mph 19 mph 56.2% 0 in
15:04 75.2 °F 58.8 °F 30.3 in NE 9.7 mph 17.5 mph 56.6% 0 in
15:09 75.4 °F 58.8 °F 30.3 in NE 9.5 mph 13.8 mph 56.6% 0 in
15:14 75.7 °F 58.6 °F 30.3 in ENE 9.2 mph 17.5 mph 55.5% 0 in
15:19 75.7 °F 58.3 °F 30.3 in ENE 8.5 mph 11.8 mph 54.8% 0 in
15:24 75.9 °F 57.9 °F 30.3 in ENE 7.6 mph 16.1 mph 53.8% 0 in
15:29 75.7 °F 57.7 °F 30.3 in NE 7.3 mph 13 mph 53.4% 0 in
15:34 75.7 °F 57.4 °F 30.3 in ENE 6.9 mph 14 mph 53% 0 in
15:39 75.7 °F 57.4 °F 30.3 in ENE 7.1 mph 16.1 mph 52.9% 0 in
15:44 75.7 °F 57.7 °F 30.2 in NE 7.4 mph 17.3 mph 53.9% 0 in
15:49 75.6 °F 57.9 °F 30.2 in ENE 8 mph 16.1 mph 54.2% 0 in
15:54 75.6 °F 57.2 °F 30.2 in NE 8.7 mph 15 mph 53% 0 in
15:55 75.4 °F 56.8 °F 30.2 in NE 8.7 mph 12.5 mph 52.4% 0 in
16:04 75.6 °F 56.7 °F 30.2 in NE 8.5 mph 17.3 mph 52% 0 in
16:09 75.4 °F 56.5 °F 30.2 in NE 8.5 mph 17.3 mph 52% 0 in
16:14 75.2 °F 56.3 °F 30.2 in NE 8.5 mph 16.1 mph 52% 0 in
16:19 75.4 °F 56.7 °F 30.2 in NE 8.3 mph 13.8 mph 52.3% 0 in
16:24 75.6 °F 57.4 °F 30.2 in NE 8.1 mph 15 mph 53.4% 0 in
16:29 75.4 °F 57.4 °F 30.2 in ENE 7.9 mph 10.7 mph 53.6% 0 in
16:34 75.4 °F 57.2 °F 30.2 in NE 7.6 mph 17.5 mph 53.2% 0 in
16:39 75 °F 57.2 °F 30.2 in NE 8 mph 15 mph 54% 0 in
16:44 74.7 °F 57 °F 30.2 in NE 8.7 mph 14 mph 54.3% 0 in
16:49 74.7 °F 56.5 °F 30.2 in NE 8.9 mph 16.1 mph 53.4% 0 in
16:54 74.7 °F 56.7 °F 30.2 in NE 9.2 mph 16.1 mph 53.5% 0 in
16:59 74.7 °F 57.4 °F 30.2 in NE 8.9 mph 13.8 mph 54.9% 0 in
17:04 74.7 °F 57.4 °F 30.2 in NE 8.5 mph 13.8 mph 55.1% 0 in
17:09 74.7 °F 57.4 °F 30.2 in NE 8 mph 15 mph 55% 0 in
17:14 74.5 °F 57.2 °F 30.2 in NE 7.4 mph 15.2 mph 55% 0 in
17:19 74.1 °F 57.4 °F 30.2 in NE 8.6 mph 15 mph 55.8% 0 in
17:24 74.3 °F 57.4 °F 30.2 in NE 10.2 mph 15.2 mph 55.4% 0 in
17:29 74.1 °F 57 °F 30.2 in NE 9.5 mph 15.2 mph 55% 0 in
17:34 74.1 °F 57 °F 30.2 in NE 8.5 mph 16.3 mph 55% 0 in
17:39 74.1 °F 57.7 °F 30.2 in NE 8.3 mph 13.8 mph 56.6% 0 in
17:44 73.9 °F 57.7 °F 30.2 in NNE 8.1 mph 16.1 mph 57.1% 0 in
17:49 73.8 °F 57.6 °F 30.2 in NE 8.1 mph 11.5 mph 57% 0 in
17:54 73.9 °F 57.7 °F 30.2 in NE 8.1 mph 11.8 mph 57.1% 0 in
17:59 73.9 °F 57.7 °F 30.2 in NE 7.3 mph 11.8 mph 57.1% 0 in
18:04 73.8 °F 57.6 °F 30.2 in NE 6.4 mph 10.4 mph 57% 0 in
18:09 73.8 °F 57.9 °F 30.2 in NE 6.4 mph 12.5 mph 57.6% 0 in
18:14 73.6 °F 58.1 °F 30.2 in NE 6.4 mph 12.7 mph 58.4% 0 in
18:19 73.4 °F 58.1 °F 30.2 in NE 6.9 mph 15.2 mph 59% 0 in
18:24 73.2 °F 57.7 °F 30.2 in NE 7.6 mph 13.8 mph 58.3% 0 in
18:29 73 °F 57.7 °F 30.2 in NE 7.6 mph 10.7 mph 58.7% 0 in
18:34 73 °F 58.5 °F 30.2 in NE 7.6 mph 14 mph 60.4% 0 in
18:39 72.9 °F 58.8 °F 30.2 in NE 7.6 mph 14 mph 61.5% 0 in
18:44 72.7 °F 58.8 °F 30.2 in NE 7.6 mph 11.2 mph 62% 0 in
18:49 72.5 °F 58.6 °F 30.2 in NE 7 mph 11.8 mph 62% 0 in
18:54 72.3 °F 58.8 °F 30.2 in NE 6.2 mph 11.5 mph 62.8% 0 in
18:59 72.1 °F 59.2 °F 30.2 in NE 6.8 mph 12.7 mph 63.8% 0 in
19:04 72 °F 59.4 °F 30.2 in NE 7.4 mph 10.4 mph 64.8% 0 in
19:09 71.8 °F 59.7 °F 30.2 in NE 6.9 mph 9.2 mph 65.7% 0 in
19:14 71.6 °F 59.7 °F 30.2 in NE 6.2 mph 10.4 mph 66.3% 0 in
19:19 71.2 °F 59.7 °F 30.2 in NE 5.6 mph 8.1 mph 67% 0 in
19:24 71.1 °F 59.5 °F 30.2 in NE 4.7 mph 10.7 mph 67% 0 in
19:29 70.9 °F 59.5 °F 30.2 in NE 5.3 mph 10.4 mph 67.5% 0 in
19:34 70.5 °F 59.5 °F 30.2 in NE 6.2 mph 8.1 mph 68% 0 in
19:39 70.3 °F 59.5 °F 30.2 in NE 5.6 mph 10.7 mph 68.5% 0 in
19:44 70.3 °F 59.5 °F 30.2 in NE 4.7 mph 9.7 mph 69% 0 in
19:49 70.2 °F 59.7 °F 30.2 in NE 5 mph 9.7 mph 69.7% 0 in
19:54 70 °F 59.7 °F 30.2 in NE 5.4 mph 10.4 mph 70% 0 in
19:59 69.6 °F 59.5 °F 30.2 in NE 5.4 mph 8.1 mph 70.2% 0 in
20:04 69.6 °F 59.7 °F 30.2 in NE 5.4 mph 6.9 mph 71% 0 in
20:09 69.4 °F 59.5 °F 30.2 in NE 4.8 mph 8.1 mph 71% 0 in
20:14 69.3 °F 59.5 °F 30.2 in NE 4 mph 7.4 mph 71% 0 in
20:19 69.1 °F 59.7 °F 30.2 in NE 4.1 mph 7.4 mph 71.8% 0 in
20:24 69.1 °F 59.5 °F 30.3 in NE 4.3 mph 8.1 mph 72% 0 in
20:29 68.7 °F 59.4 °F 30.3 in NE 4.7 mph 8.1 mph 72% 0 in
20:34 68.7 °F 59.4 °F 30.3 in NE 5.2 mph 8.1 mph 72% 0 in
20:39 68.7 °F 59.4 °F 30.3 in NE 5 mph 6.9 mph 72.4% 0 in
20:44 68.7 °F 59.7 °F 30.3 in NE 4.7 mph 8.1 mph 73% 0 in
20:49 68.7 °F 59.7 °F 30.3 in NE 4.9 mph 8.1 mph 73% 0 in
20:54 68.7 °F 59.7 °F 30.3 in NE 5.2 mph 5.8 mph 73% 0 in
20:59 68.5 °F 59.5 °F 30.3 in NE 4.5 mph 4.7 mph 73% 0 in
21:04 68.5 °F 59.5 °F 30.3 in ENE 3.6 mph 5.9 mph 73% 0 in
21:09 68.5 °F 59.7 °F 30.3 in NE 3.4 mph 5.8 mph 73.8% 0 in
21:14 68.4 °F 59.7 °F 30.3 in ENE 3.1 mph 6.2 mph 74% 0 in
21:19 68.4 °F 59.7 °F 30.3 in ENE 3.1 mph 5.8 mph 74% 0 in
21:24 68.2 °F 59.5 °F 30.3 in NE 3.1 mph 4.7 mph 74% 0 in
21:29 68.2 °F 59.5 °F 30.3 in NNE 2.8 mph 3.5 mph 74% 0 in
21:34 67.8 °F 59.5 °F 30.3 in NNO 2.4 mph 4.6 mph 74.5% 0 in
21:39 67.6 °F 59.4 °F 30.3 in NNO 2.4 mph 3.6 mph 75% 0 in
21:44 67.5 °F 59.5 °F 30.3 in NNO 2.4 mph 3.5 mph 75.8% 0 in
21:49 67.1 °F 59.4 °F 30.3 in NNO 2.1 mph 2.4 mph 76.5% 0 in
21:54 66.9 °F 59.5 °F 30.3 in North 1.8 mph 3.6 mph 77% 0 in
21:59 66.9 °F 59.5 °F 30.3 in ENE 1.9 mph 3.6 mph 77% 0 in
22:04 66.9 °F 59.5 °F 30.3 in Este 2 mph 4.6 mph 77% 0 in
22:09 66.9 °F 59.5 °F 30.3 in NE 2.2 mph 4.6 mph 77% 0 in
22:14 66.9 °F 59.5 °F 30.3 in ENE 2.4 mph 4.6 mph 77% 0 in
22:19 66.9 °F 59.5 °F 30.3 in ENE 2.2 mph 3.6 mph 77% 0 in
22:24 66.9 °F 59.5 °F 30.3 in ENE 2 mph 3.6 mph 77% 0 in
22:29 66.7 °F 59.4 °F 30.3 in ENE 2 mph 3.5 mph 77% 0 in
22:34 66.7 °F 59.4 °F 30.3 in ENE 2 mph 2.3 mph 77.6% 0 in
22:39 66.6 °F 59.5 °F 30.3 in ENE 1.2 mph   78% 0 in
22:44 66.4 °F 59.4 °F 30.3 in Calm     78% 0 in
22:49 66.4 °F 59.2 °F 30.3 in Calm   4.6 mph 78% 0 in
22:54 66 °F 59.2 °F 30.3 in Calm   2.3 mph 78.4% 0 in
22:59 66 °F 59.4 °F 30.3 in Calm   2.3 mph 79% 0 in
23:04 65.8 °F 59.2 °F 30.3 in Calm   4.6 mph 79% 0 in
23:09 65.8 °F 59.2 °F 30.3 in ONO 0.9 mph 4.6 mph 79% 0 in
23:14 65.7 °F 59.4 °F 30.3 in ONO 2 mph 3.5 mph 79.9% 0 in
23:19 65.7 °F 59.4 °F 30.3 in ONO 2 mph 3.6 mph 80% 0 in
23:24 65.5 °F 59.2 °F 30.3 in ONO 2 mph 2.3 mph 80% 0 in
23:29 65.5 °F 59.2 °F 30.3 in ONO 1.2 mph 3.6 mph 80% 0 in
23:34 65.3 °F 59.2 °F 30.3 in Calm   2.4 mph 80.7% 0 in
23:39 65.1 °F 59.2 °F 30.3 in ONO 0.6 mph 3.1 mph 81% 0 in
23:44 65.1 °F 59 °F 30.3 in ONO 1.4 mph 4.6 mph 81% 0 in
23:49 64.9 °F 59 °F 30.3 in ONO 1.7 mph 3.6 mph 81% 0 in
23:54 64.8 °F 58.8 °F 30.3 in ONO 2 mph 3.5 mph 81% 0 in
23:59 64.8 °F 58.8 °F 30.3 in ONO 1.7 mph 2.9 mph 81% 0 in
Murcia-Puente Tocinos, Espa?a
Compliments of Weather Underground - 3 mb

La estación de MeteoMurcia.com, publica sus datos en los siguientes proyectos:

Weather Underground PWS IMURCIAP2 Meteoclimatic www.awekas.at

W3Counter
Web Analytics